Romayor, Texas
Current Conditions -  °F | °C
As of 2:35 PM on Monday 24 Nov 2014 (Local Time) from K6R3 Reporting Station
Clear Clear  
Wind Chill: 62°   Ceiling: Unl
Heat Index: 62°   Visibility: 10mi
Dew Point: 35°   Wind: 7mph
Humidity: 37%   Direction: 350°N
Pressure: 30.04"   Gusts: 16mph
Location:  30.45°N, 94.84°W
Report Text: K6R3 242035Z AUTO 35006G14KT 10SM CLR 17/02 A3004 RMK AO2 T01660017
Loading
Personal Weather Stations






























Interactive Weather Map New forecast layout! Learn more

10-Day Weather Forecast

Advertisements
Track Severe Weather on mobile